createdAt,value
2018-04-18T00:00:42.201Z,14.29
2018-04-18T00:03:10.090Z,14.51
2018-04-18T00:05:37.638Z,14.59
2018-04-18T00:08:06.004Z,14.60
2018-04-18T00:10:33.672Z,14.56
2018-04-18T00:13:01.222Z,14.67
2018-04-18T00:15:28.814Z,14.98
2018-04-18T00:17:56.358Z,15.14
2018-04-18T00:20:24.175Z,15.23
2018-04-18T00:22:51.897Z,15.31
2018-04-18T00:25:19.441Z,15.27
2018-04-18T00:27:46.989Z,15.22
2018-04-18T00:30:14.578Z,15.12
2018-04-18T00:32:43.433Z,15.09
2018-04-18T00:35:11.001Z,14.97
2018-04-18T00:37:38.967Z,14.79
2018-04-18T00:40:06.836Z,14.60
2018-04-18T00:42:34.801Z,14.47
2018-04-18T00:45:02.402Z,14.29
2018-04-18T00:47:30.360Z,14.22
2018-04-18T00:49:58.201Z,14.17
2018-04-18T00:52:25.757Z,14.21
2018-04-18T00:54:53.661Z,14.23
2018-04-18T00:57:21.811Z,14.36
2018-04-18T00:59:49.574Z,14.55
2018-04-18T01:02:17.128Z,14.55
2018-04-18T01:04:44.784Z,14.80
2018-04-18T01:07:12.317Z,14.81
2018-04-18T01:09:39.878Z,14.84
2018-04-18T01:12:07.517Z,14.98
2018-04-18T01:14:35.906Z,15.23
2018-04-18T01:17:03.736Z,15.48
2018-04-18T01:19:31.354Z,15.56
2018-04-18T01:21:58.937Z,15.58
2018-04-18T01:24:26.523Z,15.62
2018-04-18T01:26:54.368Z,15.29
2018-04-18T01:29:21.985Z,15.04
2018-04-18T01:31:49.536Z,14.98
2018-04-18T01:34:17.608Z,15.03
2018-04-18T01:36:45.242Z,14.77
2018-04-18T01:39:12.783Z,14.59
2018-04-18T01:41:40.334Z,14.47
2018-04-18T01:44:08.121Z,14.52
2018-04-18T01:46:36.176Z,14.40
2018-04-18T01:49:15.722Z,14.36
2018-04-18T01:51:43.265Z,14.41
2018-04-18T01:54:10.813Z,14.64
2018-04-18T01:56:38.780Z,14.68
2018-04-18T01:59:06.371Z,14.56
2018-04-18T02:01:34.685Z,14.32
2018-04-18T02:04:02.225Z,14.21
2018-04-18T02:06:29.817Z,14.04
2018-04-18T02:08:57.888Z,14.00
2018-04-18T02:14:24.615Z,14.29
2018-04-18T02:16:52.162Z,14.16
2018-04-18T02:19:19.709Z,14.18
2018-04-18T02:21:47.297Z,14.03
2018-04-18T02:24:14.905Z,13.96
2018-04-18T02:26:42.449Z,13.97
2018-04-18T02:29:10.014Z,13.86
2018-04-18T02:31:37.714Z,13.67
2018-04-18T02:34:05.498Z,13.54
2018-04-18T02:36:33.070Z,13.36
2018-04-18T02:39:00.704Z,13.13
2018-04-18T02:41:28.329Z,13.12
2018-04-18T02:43:55.890Z,13.13
2018-04-18T02:49:22.022Z,13.10
2018-04-18T02:51:49.636Z,13.05
2018-04-18T02:54:17.190Z,12.97
2018-04-18T02:56:45.678Z,12.97
2018-04-18T02:59:13.840Z,13.00
2018-04-18T03:01:41.430Z,13.13
2018-04-18T03:04:09.003Z,13.17
2018-04-18T03:06:36.590Z,13.11
2018-04-18T03:09:04.184Z,13.25
2018-04-18T03:11:32.989Z,13.37
2018-04-18T03:14:00.537Z,13.40
2018-04-18T03:16:28.089Z,13.48
2018-04-18T03:18:55.689Z,13.50
2018-04-18T03:21:23.719Z,13.45
2018-04-18T03:23:51.454Z,13.39
2018-04-18T03:26:19.026Z,13.31
2018-04-18T03:28:46.577Z,13.30
2018-04-18T03:31:14.185Z,13.37
2018-04-18T03:33:42.548Z,13.67
2018-04-18T03:36:10.143Z,13.76
2018-04-18T03:38:37.746Z,13.78
2018-04-18T03:43:55.893Z,13.74
2018-04-18T03:46:24.098Z,13.74
2018-04-18T03:48:52.672Z,13.62
2018-04-18T03:51:20.330Z,13.58
2018-04-18T03:53:49.360Z,13.75
2018-04-18T03:56:16.912Z,13.78
2018-04-18T03:58:44.522Z,13.79
2018-04-18T04:01:12.075Z,13.80
2018-04-18T04:03:40.292Z,13.78
2018-04-18T04:06:08.192Z,13.96
2018-04-18T04:08:35.742Z,14.18
2018-04-18T04:11:03.345Z,14.41
2018-04-18T04:13:30.960Z,14.48
2018-04-18T04:15:58.538Z,14.50
2018-04-18T04:18:39.166Z,14.36
2018-04-18T04:21:18.667Z,14.26
2018-04-18T04:23:57.874Z,14.16
2018-04-18T04:26:26.849Z,14.19
2018-04-18T04:28:54.442Z,14.59
2018-04-18T04:31:22.046Z,14.93
2018-04-18T04:33:49.622Z,15.13
2018-04-18T04:36:17.233Z,15.21
2018-04-18T04:38:45.113Z,15.24
2018-04-18T04:41:12.729Z,15.19
2018-04-18T04:43:40.287Z,15.07
2018-04-18T04:46:08.385Z,15.15
2018-04-18T04:48:36.168Z,15.51
2018-04-18T04:51:03.786Z,15.62
2018-04-18T04:53:32.346Z,15.65
2018-04-18T04:55:59.893Z,15.53
2018-04-18T04:58:27.975Z,15.45
2018-04-18T05:00:56.736Z,15.44
2018-04-18T05:03:24.958Z,15.62
2018-04-18T05:05:52.587Z,15.85
2018-04-18T05:08:21.157Z,16.07
2018-04-18T05:10:51.453Z,16.17
2018-04-18T05:13:19.323Z,16.43
2018-04-18T05:15:46.956Z,16.73
2018-04-18T05:18:15.926Z,17.16
2018-04-18T05:20:43.490Z,17.41
2018-04-18T05:23:12.066Z,17.87
2018-04-18T05:25:39.678Z,18.28
2018-04-18T05:28:07.242Z,18.62
2018-04-18T05:30:34.876Z,18.94
2018-04-18T05:42:19.598Z,19.83
2018-04-18T05:44:47.162Z,20.04
2018-04-18T05:47:15.015Z,20.14
2018-04-18T05:49:42.607Z,20.37
2018-04-18T05:52:10.362Z,20.80
2018-04-18T05:54:38.021Z,20.93
2018-04-18T05:57:05.717Z,21.22
2018-04-18T05:59:33.273Z,21.08
2018-04-18T06:02:00.876Z,21.52
2018-04-18T06:04:28.740Z,21.86
2018-04-18T06:06:56.385Z,22.56
2018-04-18T06:09:24.308Z,23.21
2018-04-18T06:11:52.127Z,23.51
2018-04-18T06:14:19.726Z,23.64
2018-04-18T06:16:47.435Z,23.86
2018-04-18T06:19:15.069Z,23.35
2018-04-18T06:21:42.630Z,22.85
2018-04-18T06:24:10.191Z,23.41
2018-04-18T06:26:37.790Z,23.08
2018-04-18T06:29:05.520Z,22.98
2018-04-18T06:31:33.068Z,22.87
2018-04-18T06:34:00.657Z,23.43
2018-04-18T06:36:29.670Z,23.54
2018-04-18T06:38:57.294Z,23.29
2018-04-18T06:41:24.860Z,23.11
2018-04-18T06:43:53.286Z,23.38
2018-04-18T06:46:20.896Z,23.76
2018-04-18T06:48:48.510Z,23.88
2018-04-18T06:51:16.907Z,23.69
2018-04-18T06:53:44.634Z,23.47
2018-04-18T06:56:12.298Z,23.24
2018-04-18T06:58:39.959Z,22.84
2018-04-18T07:01:07.507Z,22.33
2018-04-18T07:03:35.102Z,21.90
2018-04-18T07:06:03.682Z,21.79
2018-04-18T07:08:31.234Z,21.93
2018-04-18T07:10:59.034Z,22.01
2018-04-18T07:13:26.781Z,21.85
2018-04-18T07:15:55.190Z,21.90
2018-04-18T07:18:22.803Z,22.00
2018-04-18T07:20:50.483Z,22.01
2018-04-18T07:23:18.078Z,21.66
2018-04-18T07:25:45.628Z,21.75
2018-04-18T07:28:13.171Z,21.80
2018-04-18T07:30:40.778Z,21.70
2018-04-18T07:33:09.485Z,21.93
2018-04-18T07:35:37.098Z,22.11
2018-04-18T07:38:04.650Z,22.28
2018-04-18T07:40:32.262Z,22.39
2018-04-18T07:42:59.867Z,22.48
2018-04-18T07:45:28.003Z,22.55
2018-04-18T07:47:55.762Z,22.64
2018-04-18T07:50:23.325Z,22.71
2018-04-18T07:52:50.974Z,22.77
2018-04-18T07:55:19.669Z,22.80
2018-04-18T07:57:47.763Z,22.83
2018-04-18T08:00:15.503Z,22.82
2018-04-18T08:02:43.231Z,22.89
2018-04-18T08:05:11.348Z,22.95
2018-04-18T08:07:39.486Z,22.98
2018-04-18T08:10:07.072Z,23.00
2018-04-18T08:12:34.989Z,22.98
2018-04-18T08:15:02.559Z,23.04
2018-04-18T08:17:30.114Z,23.07
2018-04-18T08:19:58.563Z,22.97
2018-04-18T08:22:26.306Z,23.03
2018-04-18T08:24:55.319Z,22.96
2018-04-18T08:27:22.924Z,23.02
2018-04-18T08:29:50.828Z,23.06
2018-04-18T08:32:18.451Z,23.07
2018-04-18T08:34:46.002Z,22.86
2018-04-18T08:37:13.612Z,22.76
2018-04-18T08:39:41.775Z,22.82
2018-04-18T08:42:09.473Z,22.85
2018-04-18T08:44:37.094Z,22.89
2018-04-18T08:47:04.651Z,22.97
2018-04-18T08:49:32.286Z,22.84
2018-04-18T08:52:00.842Z,22.64
2018-04-18T08:54:28.781Z,22.58
2018-04-18T08:56:56.416Z,22.66
2018-04-18T08:59:24.067Z,22.55
2018-04-18T09:01:52.633Z,22.62
2018-04-18T09:04:20.249Z,22.70
2018-04-18T09:06:47.858Z,22.80
2018-04-18T09:09:15.486Z,22.86
2018-04-18T09:11:43.039Z,22.80
2018-04-18T09:14:10.889Z,22.89
2018-04-18T09:16:39.354Z,22.92
2018-04-18T09:19:07.344Z,22.91
2018-04-18T09:21:35.125Z,22.89
2018-04-18T09:24:02.670Z,22.93
2018-04-18T09:26:30.289Z,22.96
2018-04-18T09:28:57.883Z,22.97
2018-04-18T09:31:25.605Z,22.98
2018-04-18T09:33:53.229Z,22.98
2018-04-18T09:36:20.782Z,22.98
2018-04-18T09:38:48.340Z,22.96
2018-04-18T09:41:15.959Z,22.97
2018-04-18T09:43:43.514Z,22.96
2018-04-18T09:46:11.181Z,22.92
2018-04-18T09:48:39.726Z,22.96
2018-04-18T09:51:07.279Z,22.96
2018-04-18T09:53:34.942Z,22.96
2018-04-18T09:56:02.505Z,22.94
2018-04-18T09:58:31.024Z,22.94
2018-04-18T10:00:59.591Z,22.90
2018-04-18T10:03:29.287Z,22.90
2018-04-18T10:05:56.881Z,22.89
2018-04-18T10:08:24.839Z,22.90
2018-04-18T10:10:52.656Z,22.92
2018-04-18T10:13:20.497Z,22.89
2018-04-18T10:15:48.099Z,22.89
2018-04-18T10:18:15.667Z,22.92
2018-04-18T10:20:44.582Z,22.93
2018-04-18T10:23:12.138Z,22.90
2018-04-18T10:25:40.557Z,22.86
2018-04-18T10:28:08.436Z,22.86
2018-04-18T10:30:36.391Z,22.85
2018-04-18T10:33:04.575Z,22.86
2018-04-18T10:35:32.178Z,22.94
2018-04-18T10:38:00.269Z,22.95
2018-04-18T10:40:28.175Z,22.92
2018-04-18T10:42:55.762Z,22.92
2018-04-18T10:45:24.118Z,22.89
2018-04-18T10:47:52.088Z,22.89
2018-04-18T10:50:20.623Z,22.86
2018-04-18T10:52:48.281Z,22.85
2018-04-18T10:55:15.925Z,22.84
2018-04-18T10:57:43.537Z,22.84
2018-04-18T11:00:11.083Z,22.83
2018-04-18T11:02:38.685Z,22.81
2018-04-18T11:05:07.060Z,22.81
2018-04-18T11:07:34.618Z,22.80
2018-04-18T11:10:02.299Z,22.81
2018-04-18T11:12:29.868Z,22.81
2018-04-18T11:14:57.442Z,22.80
2018-04-18T11:17:25.102Z,22.80
2018-04-18T11:19:52.658Z,22.80
2018-04-18T11:22:20.274Z,22.83
2018-04-18T11:24:48.707Z,22.84
2018-04-18T11:27:16.381Z,22.84
2018-04-18T11:29:44.009Z,22.84
2018-04-18T11:32:12.367Z,22.86
2018-04-18T11:34:39.918Z,22.87
2018-04-18T11:37:07.515Z,22.89
2018-04-18T11:39:35.134Z,22.92
2018-04-18T11:42:02.693Z,22.92
2018-04-18T11:44:30.346Z,22.95
2018-04-18T11:46:57.954Z,22.95
2018-04-18T11:49:25.530Z,22.99
2018-04-18T11:51:53.236Z,22.99
2018-04-18T11:54:20.794Z,23.02
2018-04-18T11:56:49.310Z,23.03
2018-04-18T11:59:17.913Z,23.03
2018-04-18T12:01:45.562Z,23.04
2018-04-18T12:04:13.155Z,23.05
2018-04-18T12:06:40.708Z,23.05
2018-04-18T12:09:08.370Z,23.06
2018-04-18T12:11:36.015Z,23.07
2018-04-18T12:14:03.683Z,23.06
2018-04-18T12:16:31.446Z,23.05
2018-04-18T12:18:59.082Z,23.04
2018-04-18T12:21:26.629Z,23.02
2018-04-18T12:23:54.983Z,22.99
2018-04-18T12:26:22.582Z,22.97
2018-04-18T12:28:50.186Z,22.98
2018-04-18T12:31:17.791Z,22.97
2018-04-18T12:33:45.370Z,23.00
2018-04-18T12:36:12.922Z,23.01
2018-04-18T12:38:40.514Z,23.00
2018-04-18T12:41:08.133Z,23.00
2018-04-18T12:43:35.763Z,23.00
2018-04-18T12:46:03.406Z,22.99
2018-04-18T12:48:30.954Z,22.98
2018-04-18T12:50:58.562Z,22.98
2018-04-18T12:53:26.336Z,22.98
2018-04-18T12:55:53.995Z,22.97
2018-04-18T12:58:21.567Z,22.97
2018-04-18T13:00:49.205Z,22.97
2018-04-18T13:03:16.815Z,22.99
2018-04-18T13:05:44.384Z,22.99
2018-04-18T13:08:12.084Z,23.00
2018-04-18T13:10:39.746Z,23.01
2018-04-18T13:13:07.282Z,23.00
2018-04-18T13:15:34.951Z,23.01
2018-04-18T13:18:02.626Z,23.01
2018-04-18T13:20:30.198Z,23.01
2018-04-18T13:22:57.834Z,22.99
2018-04-18T13:25:25.435Z,23.01
2018-04-18T13:27:53.930Z,23.00
2018-04-18T13:30:21.543Z,23.02
2018-04-18T13:32:49.087Z,23.02
2018-04-18T13:35:17.619Z,23.02
2018-04-18T13:37:45.231Z,23.01
2018-04-18T13:40:12.812Z,22.98
2018-04-18T13:42:40.480Z,22.97
2018-04-18T13:45:08.040Z,22.96
2018-04-18T13:47:35.669Z,22.97
2018-04-18T13:50:03.271Z,22.97
2018-04-18T13:52:30.873Z,22.96
2018-04-18T13:54:58.496Z,22.95
2018-04-18T13:57:26.089Z,22.94
2018-04-18T13:59:53.642Z,22.94
2018-04-18T14:02:21.190Z,22.94
2018-04-18T14:04:48.834Z,22.92
2018-04-18T14:07:17.287Z,22.92
2018-04-18T14:09:44.929Z,22.92
2018-04-18T14:12:12.535Z,22.93
2018-04-18T14:14:40.118Z,22.91
2018-04-18T14:17:07.666Z,22.90
2018-04-18T14:19:35.285Z,22.88
2018-04-18T14:22:02.830Z,22.87
2018-04-18T14:24:30.378Z,22.86
2018-04-18T14:26:58.034Z,22.84
2018-04-18T14:29:25.994Z,22.83
2018-04-18T14:31:53.621Z,22.84
2018-04-18T14:34:21.254Z,22.83
2018-04-18T14:36:48.862Z,22.81
2018-04-18T14:39:16.471Z,22.82
2018-04-18T14:41:44.121Z,22.83
2018-04-18T14:44:12.302Z,22.83
2018-04-18T14:46:39.926Z,22.82
2018-04-18T14:49:07.537Z,22.81
2018-04-18T14:51:35.251Z,22.81
2018-04-18T14:54:03.601Z,22.80
2018-04-18T14:56:31.303Z,22.80
2018-04-18T14:58:59.196Z,22.80
2018-04-18T15:01:27.215Z,22.80
2018-04-18T15:03:54.878Z,22.80
2018-04-18T15:06:23.011Z,22.80
2018-04-18T15:08:51.563Z,22.80
2018-04-18T15:11:19.215Z,22.76
2018-04-18T15:13:46.762Z,22.76
2018-04-18T15:16:14.373Z,22.75
2018-04-18T15:18:41.978Z,22.74
2018-04-18T15:21:09.586Z,22.74
2018-04-18T15:23:37.242Z,22.74
2018-04-18T15:26:04.926Z,22.73
2018-04-18T15:28:32.518Z,22.72
2018-04-18T15:31:00.130Z,22.72
2018-04-18T15:33:27.814Z,22.72
2018-04-18T15:35:55.446Z,22.71
2018-04-18T15:38:23.002Z,22.70
2018-04-18T15:40:50.792Z,22.69
2018-04-18T15:43:18.338Z,22.68
2018-04-18T15:45:48.766Z,22.66
2018-04-18T15:48:16.386Z,22.66
2018-04-18T15:50:44.814Z,22.64
2018-04-18T15:53:14.219Z,22.62
2018-04-18T15:55:42.649Z,22.63
2018-04-18T15:58:10.311Z,22.60
2018-04-18T16:00:37.855Z,22.57
2018-04-18T16:03:06.565Z,22.56
2018-04-18T16:05:34.129Z,22.53
2018-04-18T16:08:02.682Z,22.51
2018-04-18T16:10:32.015Z,22.50
2018-04-18T16:12:59.581Z,22.48
2018-04-18T16:15:27.135Z,22.46
2018-04-18T16:17:54.730Z,22.43
2018-04-18T16:20:22.373Z,22.42
2018-04-18T16:22:49.995Z,22.40
2018-04-18T16:25:17.618Z,22.39
2018-04-18T16:27:45.263Z,22.37
2018-04-18T16:30:24.534Z,22.35
2018-04-18T16:32:52.214Z,22.32
2018-04-18T16:35:19.769Z,22.28
2018-04-18T16:37:47.378Z,22.24
2018-04-18T16:40:16.749Z,22.21
2018-04-18T16:42:44.310Z,22.20
2018-04-18T16:45:11.870Z,22.18
2018-04-18T16:47:39.603Z,22.16
2018-04-18T16:50:07.154Z,22.13
2018-04-18T16:52:34.754Z,22.12
2018-04-18T16:55:02.359Z,22.09
2018-04-18T16:57:30.054Z,22.05
2018-04-18T16:59:58.834Z,22.03
2018-04-18T17:02:26.440Z,22.01
2018-04-18T17:04:54.098Z,21.98
2018-04-18T17:07:22.782Z,21.95
2018-04-18T17:09:52.157Z,21.91
2018-04-18T17:12:19.742Z,21.89
2018-04-18T17:14:47.891Z,21.85
2018-04-18T17:17:15.539Z,21.83
2018-04-18T17:19:43.122Z,21.83
2018-04-18T17:22:12.600Z,21.78
2018-04-18T17:24:40.189Z,21.78
2018-04-18T17:27:07.851Z,21.74
2018-04-18T17:29:35.426Z,21.70
2018-04-18T17:32:03.460Z,21.67
2018-04-18T17:34:31.938Z,21.49
2018-04-18T17:36:59.590Z,21.44
2018-04-18T17:39:27.202Z,21.45
2018-04-18T17:41:55.158Z,21.47
2018-04-18T17:44:23.477Z,21.49
2018-04-18T17:46:51.142Z,21.51
2018-04-18T17:49:18.710Z,21.54
2018-04-18T17:51:46.380Z,21.56
2018-04-18T17:54:14.983Z,21.56
2018-04-18T17:56:43.702Z,21.59
2018-04-18T17:59:11.355Z,21.60
2018-04-18T18:01:39.254Z,21.60
2018-04-18T18:04:07.713Z,21.60
2018-04-18T18:06:35.286Z,21.61
2018-04-18T18:09:03.938Z,21.61
2018-04-18T18:11:32.104Z,21.61
2018-04-18T18:14:00.472Z,21.61
2018-04-18T18:16:28.087Z,21.61
2018-04-18T18:18:56.703Z,21.62
2018-04-18T18:21:25.294Z,21.63
2018-04-18T18:23:53.218Z,21.62
2018-04-18T18:26:20.875Z,21.63
2018-04-18T18:28:49.522Z,21.63
2018-04-18T18:31:18.106Z,21.61
2018-04-18T18:33:45.715Z,21.62
2018-04-18T18:36:13.346Z,21.63
2018-04-18T18:38:41.074Z,21.61
2018-04-18T18:41:08.658Z,21.58
2018-04-18T18:43:37.237Z,21.58
2018-04-18T18:46:05.210Z,21.58
2018-04-18T18:48:33.757Z,21.58
2018-04-18T18:51:01.419Z,21.58
2018-04-18T18:53:29.050Z,21.57
2018-04-18T18:55:56.594Z,21.57
2018-04-18T18:58:24.222Z,21.56
2018-04-18T19:00:51.777Z,21.56
2018-04-18T19:03:19.381Z,21.55
2018-04-18T19:05:46.993Z,21.54
2018-04-18T19:08:15.048Z,21.52
2018-04-18T19:10:42.589Z,21.52
2018-04-18T19:13:10.138Z,21.50
2018-04-18T19:15:38.587Z,21.47
2018-04-18T19:18:06.672Z,21.46
2018-04-18T19:20:36.175Z,21.45
2018-04-18T19:23:04.192Z,21.44
2018-04-18T19:25:33.125Z,21.42
2018-04-18T19:28:01.895Z,21.42
2018-04-18T19:30:29.953Z,21.40
2018-04-18T19:32:58.710Z,21.39
2018-04-18T19:35:28.002Z,21.36
2018-04-18T19:37:56.567Z,21.35
2018-04-18T19:40:24.466Z,21.34
2018-04-18T19:42:52.043Z,21.34
2018-04-18T19:45:19.649Z,21.33
2018-04-18T19:47:47.531Z,21.32
2018-04-18T19:50:15.789Z,21.30
2018-04-18T19:52:43.338Z,21.30
2018-04-18T19:55:10.930Z,21.14
2018-04-18T19:57:39.482Z,21.10
2018-04-18T20:00:07.267Z,21.09
2018-04-18T20:02:34.819Z,21.10
2018-04-18T20:05:03.027Z,21.06
2018-04-18T20:07:32.359Z,21.09
2018-04-18T20:09:59.914Z,21.11
2018-04-18T20:12:27.462Z,21.09
2018-04-18T20:14:55.318Z,21.07
2018-04-18T20:17:23.997Z,21.07
2018-04-18T20:19:52.670Z,21.05
2018-04-18T20:22:20.383Z,21.05
2018-04-18T20:24:48.535Z,21.03
2018-04-18T20:27:16.639Z,21.04
2018-04-18T20:29:45.289Z,21.03
2018-04-18T20:32:13.698Z,21.04
2018-04-18T20:34:42.678Z,21.04
2018-04-18T20:37:11.234Z,21.05
2018-04-18T20:39:38.778Z,21.05
2018-04-18T20:42:06.322Z,21.05
2018-04-18T20:44:34.116Z,21.04
2018-04-18T20:47:01.659Z,20.87
2018-04-18T20:49:31.237Z,20.64
2018-04-18T20:51:58.925Z,20.44
2018-04-18T20:54:27.639Z,20.25
2018-04-18T20:56:57.198Z,20.09
2018-04-18T20:59:25.589Z,19.95
2018-04-18T21:01:53.918Z,19.87
2018-04-18T21:04:21.458Z,19.56
2018-04-18T21:06:49.791Z,19.39
2018-04-18T21:09:17.335Z,19.48
2018-04-18T21:11:45.506Z,19.66
2018-04-18T21:14:13.126Z,19.56
2018-04-18T21:16:40.716Z,19.58
2018-04-18T21:19:08.273Z,19.57
2018-04-18T21:21:36.880Z,19.60
2018-04-18T21:24:05.067Z,19.53
2018-04-18T21:26:32.936Z,19.42
2018-04-18T21:29:02.431Z,19.44
2018-04-18T21:31:29.982Z,19.47
2018-04-18T21:33:57.544Z,19.51
2018-04-18T21:36:25.139Z,19.48
2018-04-18T21:38:52.691Z,19.50
2018-04-18T21:41:20.322Z,19.27
2018-04-18T21:43:47.878Z,19.08
2018-04-18T21:46:15.421Z,19.10
2018-04-18T21:48:43.017Z,19.12
2018-04-18T21:51:11.501Z,19.13
2018-04-18T21:53:39.094Z,19.13
2018-04-18T21:56:06.647Z,19.13
2018-04-18T21:58:34.531Z,19.21
2018-04-18T22:01:02.076Z,19.24
2018-04-18T22:03:29.670Z,19.29
2018-04-18T22:05:57.219Z,19.41
2018-04-18T22:08:24.807Z,19.44
2018-04-18T22:10:52.389Z,19.51
2018-04-18T22:13:19.931Z,19.53
2018-04-18T22:15:47.807Z,19.51
2018-04-18T22:18:15.570Z,19.34
2018-04-18T22:20:43.327Z,19.21
2018-04-18T22:23:10.914Z,19.24
2018-04-18T22:25:39.171Z,19.01
2018-04-18T22:28:06.770Z,18.71
2018-04-18T22:30:34.852Z,18.36
2018-04-18T22:33:03.784Z,18.45
2018-04-18T22:35:31.477Z,18.66
2018-04-18T22:37:59.226Z,18.92
2018-04-18T22:40:26.767Z,19.06
2018-04-18T22:42:54.378Z,19.05
2018-04-18T22:45:21.922Z,18.39
2018-04-18T22:47:50.422Z,17.93
2018-04-18T22:50:18.064Z,17.49
2018-04-18T22:52:45.610Z,17.44
2018-04-18T22:55:13.445Z,17.80
2018-04-18T22:57:41.049Z,18.09
2018-04-18T23:00:08.694Z,18.25
2018-04-18T23:02:36.291Z,18.35
2018-04-18T23:05:04.114Z,18.20
2018-04-18T23:07:31.665Z,17.82
2018-04-18T23:10:00.651Z,17.49
2018-04-18T23:12:28.195Z,17.25
2018-04-18T23:14:55.801Z,17.20
2018-04-18T23:17:23.353Z,17.24
2018-04-18T23:19:51.091Z,17.17
2018-04-18T23:22:30.420Z,17.06
2018-04-18T23:24:58.006Z,17.07
2018-04-18T23:27:25.561Z,17.26
2018-04-18T23:29:53.150Z,17.23
2018-04-18T23:32:20.697Z,17.29
2018-04-18T23:34:49.665Z,17.40
2018-04-18T23:37:17.261Z,17.16
2018-04-18T23:39:45.210Z,17.19
2018-04-18T23:42:13.387Z,17.08
2018-04-18T23:44:41.282Z,17.06
2018-04-18T23:47:09.698Z,16.97
2018-04-18T23:49:37.318Z,17.00
2018-04-18T23:52:05.067Z,17.00
2018-04-18T23:54:32.616Z,16.93
2018-04-18T23:57:00.867Z,16.82
2018-04-18T23:59:28.657Z,16.70
